Sutherlin, Oregon
Current Conditions -  °F | °C
As of 2:06 AM on Thursday 23 Oct 2014 (Local Time) from KRBG Reporting Station
Light Rain Light Rain  
Wind Chill: 59°   Ceiling: 3300
Heat Index: 59°   Visibility: 6mi
Dew Point: 56°   Wind: 5mph
Humidity: 90%   Direction: 130°SE
Pressure: 29.82"   Gusts: NA
Location:  43.39°N, 123.31°W
Report Text: KRBG 230906Z AUTO 13004KT 6SM -RA BR FEW007 SCT025 OVC033 15/13 A2982 RMK AO2 P0001 T01500133
Loading
Personal Weather Stations






























Interactive Weather Map
Tropical Storm Tracking
New forecast layout! Learn more

10-Day Weather Forecast

Advertisements
Track Severe Weather on mobile